Time;durP1;ratioP1;P1;durP2;ratioP2;P2;SDS_P1;SDS_P2;PMS_P1;PMS_P2;Temp;Humidity;BMP_temperature;BMP_pressure;BME280_temperature;BME280_humidity;BME280_pressure;Samples;Min_cycle;Max_cycle;Signal;HPM_P1;HPM_P2
2023/10/24 00:00:43;;;;;;;9.80;7.97;;;9.70;99.90;;;;;;5051822;28;20949;-65
2023/10/24 00:03:11;;;;;;;8.27;7.47;;;9.70;99.90;;;;;;5052730;28;20497;-64
2023/10/24 00:05:40;;;;;;;8.73;7.80;;;9.70;99.90;;;;;;5055758;28;20571;-64
2023/10/24 00:08:09;;;;;;;8.53;7.30;;;9.70;99.90;;;;;;5046492;28;20500;-66
2023/10/24 00:10:37;;;;;;;8.23;7.43;;;9.70;99.90;;;;;;5047237;28;20559;-65
2023/10/24 00:13:05;;;;;;;8.83;7.80;;;9.80;99.90;;;;;;5056431;28;20485;-64
2023/10/24 00:15:33;;;;;;;9.60;6.97;;;9.70;99.90;;;;;;5050058;28;20469;-64
2023/10/24 00:18:01;;;;;;;8.97;7.87;;;9.80;99.90;;;;;;5054021;28;21044;-65
2023/10/24 00:20:29;;;;;;;10.73;8.33;;;9.80;99.90;;;;;;5048374;28;20497;-64
2023/10/24 00:22:58;;;;;;;8.40;7.50;;;9.80;99.90;;;;;;5048879;28;20886;-64
2023/10/24 00:25:26;;;;;;;9.43;8.00;;;9.80;99.90;;;;;;5044834;28;20532;-65
2023/10/24 00:27:55;;;;;;;9.20;7.80;;;9.80;99.90;;;;;;5043128;28;20493;-64
2023/10/24 00:30:23;;;;;;;9.03;8.13;;;9.90;99.90;;;;;;5049995;28;20991;-66
2023/10/24 00:32:50;;;;;;;9.23;8.17;;;9.90;99.90;;;;;;5046819;28;20481;-64
2023/10/24 00:35:19;;;;;;;9.60;8.60;;;9.90;99.90;;;;;;5048816;28;20484;-65
2023/10/24 00:37:47;;;;;;;8.97;7.33;;;9.90;99.90;;;;;;5048745;28;20577;-65
2023/10/24 00:40:18;;;;;;;10.23;8.10;;;9.90;99.90;;;;;;5047207;28;20486;-66
2023/10/24 00:42:47;;;;;;;9.17;8.10;;;9.90;99.90;;;;;;5046517;28;20899;-67
2023/10/24 00:45:15;;;;;;;9.33;8.43;;;9.90;99.90;;;;;;5054594;28;20589;-64
2023/10/24 00:47:43;;;;;;;10.03;9.03;;;9.90;99.90;;;;;;5046572;28;21239;-65
2023/10/24 00:50:12;;;;;;;10.03;8.50;;;9.90;99.90;;;;;;5058575;28;20548;-64
2023/10/24 00:52:43;;;;;;;9.87;8.73;;;10.00;99.90;;;;;;5044825;28;20488;-64
2023/10/24 00:55:13;;;;;;;9.83;8.80;;;10.00;99.90;;;;;;5047293;28;20466;-64
2023/10/24 00:57:44;;;;;;;11.13;9.77;;;10.00;99.90;;;;;;5048201;28;20514;-64
2023/10/24 01:00:13;;;;;;;9.73;8.73;;;10.00;99.90;;;;;;5045487;28;20661;-66
2023/10/24 01:02:41;;;;;;;9.37;8.20;;;10.00;99.90;;;;;;5045270;28;20478;-66
2023/10/24 01:05:10;;;;;;;9.80;8.80;;;10.10;99.90;;;;;;5048057;28;20506;-66
2023/10/24 01:07:39;;;;;;;9.47;8.57;;;10.10;99.90;;;;;;5055068;28;20585;-64
2023/10/24 01:10:09;;;;;;;11.73;9.23;;;10.10;99.90;;;;;;5050592;28;20483;-63
2023/10/24 01:12:37;;;;;;;10.17;9.07;;;10.10;99.90;;;;;;5048591;28;20462;-65
2023/10/24 01:15:07;;;;;;;8.80;7.90;;;10.10;99.90;;;;;;5046154;28;20548;-66
2023/10/24 01:17:35;;;;;;;9.23;8.33;;;10.10;99.90;;;;;;5053726;28;20571;-66
2023/10/24 01:20:04;;;;;;;9.60;8.40;;;10.20;99.90;;;;;;5052179;28;20493;-63
2023/10/24 01:22:34;;;;;;;9.73;8.20;;;10.20;99.90;;;;;;5046931;28;20472;-63
2023/10/24 01:25:03;;;;;;;9.97;8.37;;;10.20;99.90;;;;;;5043050;28;21083;-63
2023/10/24 01:27:31;;;;;;;10.47;8.70;;;10.20;99.90;;;;;;5053921;28;20568;-65
2023/10/24 01:29:59;;;;;;;10.10;8.97;;;10.20;99.90;;;;;;5055093;28;20890;-64
2023/10/24 01:32:31;;;;;;;11.33;9.10;;;10.20;99.90;;;;;;5054726;28;20467;-64
2023/10/24 01:34:59;;;;;;;10.40;9.30;;;10.20;99.90;;;;;;5055335;28;20890;-64
2023/10/24 01:37:27;;;;;;;10.40;9.40;;;10.20;99.90;;;;;;5055639;28;20589;-64
2023/10/24 01:39:56;;;;;;;11.03;8.87;;;10.20;99.90;;;;;;5054029;28;20862;-65
2023/10/24 01:42:24;;;;;;;10.63;9.60;;;10.20;99.90;;;;;;5057568;28;20544;-65
2023/10/24 01:44:52;;;;;;;10.10;8.70;;;10.30;99.90;;;;;;5055864;28;20525;-63
2023/10/24 01:47:20;;;;;;;10.50;9.40;;;10.30;99.90;;;;;;5054581;28;20494;-64
2023/10/24 01:49:49;;;;;;;10.17;9.10;;;10.30;99.90;;;;;;5053583;28;20520;-64
2023/10/24 01:52:17;;;;;;;9.70;8.70;;;10.30;99.90;;;;;;5059224;28;20466;-64
2023/10/24 01:54:45;;;;;;;10.20;9.20;;;10.30;99.90;;;;;;5059878;28;20468;-64
2023/10/24 01:57:15;;;;;;;10.43;9.43;;;10.30;99.90;;;;;;5056368;28;20952;-65
2023/10/24 01:59:43;;;;;;;10.30;8.97;;;10.30;99.90;;;;;;5055825;28;20569;-64
2023/10/24 02:02:11;;;;;;;9.73;8.80;;;10.30;99.90;;;;;;5055807;28;20573;-63
2023/10/24 02:04:39;;;;;;;10.13;9.00;;;10.30;99.90;;;;;;5056492;28;20501;-63
2023/10/24 02:07:07;;;;;;;10.10;8.73;;;10.30;99.90;;;;;;5056977;28;20608;-63
2023/10/24 02:09:36;;;;;;;9.60;8.70;;;10.30;99.90;;;;;;5057919;28;20578;-64
2023/10/24 02:12:04;;;;;;;10.07;9.13;;;10.40;99.90;;;;;;5048970;28;21065;-64
2023/10/24 02:14:34;;;;;;;10.07;9.07;;;10.40;99.90;;;;;;5043749;28;20904;-66
2023/10/24 02:17:02;;;;;;;9.80;8.80;;;10.40;99.90;;;;;;5057367;28;20495;-66
2023/10/24 02:19:30;;;;;;;10.83;8.27;;;10.40;99.90;;;;;;5051220;28;20497;-66
2023/10/24 02:21:58;;;;;;;9.73;8.77;;;10.40;99.90;;;;;;5046177;28;20669;-65
2023/10/24 02:24:26;;;;;;;9.27;8.40;;;10.40;99.90;;;;;;5045636;28;20850;-66
2023/10/24 02:26:54;;;;;;;8.50;7.70;;;10.40;99.90;;;;;;5058091;28;20834;-65
2023/10/24 02:29:22;;;;;;;10.70;8.77;;;10.40;99.90;;;;;;5043561;28;20497;-65
2023/10/24 02:31:51;;;;;;;9.33;8.33;;;10.40;99.90;;;;;;5048016;28;20623;-64
2023/10/24 02:34:21;;;;;;;9.57;8.37;;;10.40;99.90;;;;;;5044597;28;20466;-65
2023/10/24 02:36:49;;;;;;;9.37;8.37;;;10.40;99.90;;;;;;5047380;28;20493;-64
2023/10/24 02:39:17;;;;;;;10.03;8.93;;;10.40;99.90;;;;;;5047263;28;20581;-66
2023/10/24 02:41:46;;;;;;;9.90;8.90;;;10.40;99.90;;;;;;5046142;28;20473;-67
2023/10/24 02:44:14;;;;;;;9.33;8.13;;;10.50;99.90;;;;;;5045111;28;20474;-65
2023/10/24 02:46:42;;;;;;;9.37;8.37;;;10.40;99.90;;;;;;5044816;28;21086;-64
2023/10/24 02:49:12;;;;;;;10.83;8.03;;;10.40;99.90;;;;;;5057553;28;21005;-64
2023/10/24 02:51:40;;;;;;;8.73;7.70;;;10.50;99.90;;;;;;5058318;28;21128;-64
2023/10/24 02:54:08;;;;;;;8.67;7.77;;;10.50;99.90;;;;;;5052979;28;20470;-64
2023/10/24 02:56:36;;;;;;;8.80;8.00;;;10.50;99.90;;;;;;5048796;28;20469;-65
2023/10/24 02:59:05;;;;;;;9.50;8.60;;;10.50;99.90;;;;;;5048048;28;21016;-65
2023/10/24 03:01:33;;;;;;;9.10;8.20;;;10.60;99.90;;;;;;5055354;28;20570;-65
2023/10/24 03:04:02;;;;;;;8.20;7.40;;;10.60;99.90;;;;;;5053835;28;20474;-65
2023/10/24 03:06:31;;;;;;;10.23;8.27;;;10.60;99.90;;;;;;5052325;28;21090;-64
2023/10/24 03:08:59;;;;;;;9.73;8.63;;;10.60;99.90;;;;;;5061144;28;20552;-64
2023/10/24 03:11:27;;;;;;;9.30;8.40;;;10.60;99.90;;;;;;5052157;28;20553;-64
2023/10/24 03:13:56;;;;;;;9.03;8.17;;;10.70;99.90;;;;;;5055780;28;20466;-65
2023/10/24 03:16:24;;;;;;;9.17;8.27;;;10.70;99.90;;;;;;5047238;28;21034;-65
2023/10/24 03:18:52;;;;;;;9.67;7.77;;;10.60;99.90;;;;;;5047985;28;20845;-65
2023/10/24 03:21:21;;;;;;;9.00;8.03;;;10.60;99.90;;;;;;5047982;28;20465;-63
2023/10/24 03:23:50;;;;;;;9.20;8.30;;;10.60;99.90;;;;;;5045457;28;21015;-66
2023/10/24 03:26:19;;;;;;;9.33;8.43;;;10.60;99.90;;;;;;5059393;28;20483;-65
2023/10/24 03:28:47;;;;;;;9.57;7.83;;;10.60;99.90;;;;;;5050464;28;20855;-65
2023/10/24 03:31:15;;;;;;;9.63;8.60;;;10.60;99.90;;;;;;5056072;28;20545;-66
2023/10/24 03:33:44;;;;;;;9.30;8.37;;;10.70;99.90;;;;;;5049538;28;20501;-64
2023/10/24 03:36:13;;;;;;;10.40;9.40;;;10.60;99.90;;;;;;5048917;28;20484;-63
2023/10/24 03:38:42;;;;;;;9.63;8.63;;;10.70;99.90;;;;;;5058484;28;20486;-63
2023/10/24 03:41:11;;;;;;;9.37;8.37;;;10.70;99.90;;;;;;5047922;28;20564;-64
2023/10/24 03:43:40;;;;;;;9.73;8.60;;;10.70;99.90;;;;;;5047453;28;20496;-64
2023/10/24 03:46:08;;;;;;;9.60;8.60;;;10.70;99.90;;;;;;5052186;28;20486;-64
2023/10/24 03:48:36;;;;;;;10.80;9.80;;;10.70;99.90;;;;;;5049627;28;20550;-66
2023/10/24 03:51:04;;;;;;;9.87;8.87;;;10.80;99.90;;;;;;5048483;28;20857;-64
2023/10/24 03:53:32;;;;;;;9.07;8.23;;;10.80;99.90;;;;;;5056829;28;20564;-65
2023/10/24 03:56:00;;;;;;;10.47;9.27;;;10.80;99.90;;;;;;5048087;28;20826;-64
2023/10/24 03:58:30;;;;;;;9.90;8.60;;;10.80;99.90;;;;;;5047930;28;21907;-65
2023/10/24 04:01:04;;;;;;;10.40;9.40;;;10.80;99.90;;;;;;5045516;28;20492;-65
2023/10/24 04:03:34;;;;;;;11.53;8.73;;;10.70;99.90;;;;;;5047184;28;20472;-66
2023/10/24 04:06:03;;;;;;;10.13;9.03;;;10.70;99.90;;;;;;5056464;28;20501;-64
2023/10/24 04:08:31;;;;;;;10.53;9.43;;;10.70;99.90;;;;;;5050010;28;20564;-66
2023/10/24 04:10:59;;;;;;;10.73;9.50;;;10.70;99.90;;;;;;5053948;28;21068;-65
2023/10/24 04:13:27;;;;;;;10.43;9.17;;;10.70;99.90;;;;;;5050628;28;20623;-65
2023/10/24 04:15:59;;;;;;;11.87;10.60;;;10.80;99.90;;;;;;5051211;28;20462;-64
2023/10/24 04:18:28;;;;;;;10.23;9.10;;;10.80;99.90;;;;;;5044564;28;20521;-65
2023/10/24 04:20:56;;;;;;;10.40;9.30;;;10.80;99.90;;;;;;5058234;28;20482;-64
2023/10/24 04:23:24;;;;;;;12.37;9.87;;;10.80;99.90;;;;;;5054478;28;20470;-65
2023/10/24 04:25:52;;;;;;;11.27;10.03;;;10.80;99.90;;;;;;5051232;28;21482;-66
2023/10/24 04:28:20;;;;;;;10.80;8.97;;;10.80;99.90;;;;;;5051397;28;20508;-65
2023/10/24 04:30:48;;;;;;;12.53;9.60;;;10.80;99.90;;;;;;5047831;28;20486;-66
2023/10/24 04:33:17;;;;;;;10.67;9.60;;;10.80;99.90;;;;;;5053087;28;20532;-65
2023/10/24 04:35:47;;;;;;;10.27;9.17;;;10.80;99.90;;;;;;5050103;28;20549;-65
2023/10/24 04:38:15;;;;;;;11.90;10.20;;;10.80;99.90;;;;;;5053760;28;20520;-68
2023/10/24 04:40:43;;;;;;;12.60;10.70;;;10.80;99.90;;;;;;5046440;28;21021;-65
2023/10/24 04:43:11;;;;;;;12.70;10.00;;;10.80;99.90;;;;;;5059309;28;20484;-65
2023/10/24 04:45:40;;;;;;;11.00;9.90;;;10.80;99.90;;;;;;5047724;28;20553;-65
2023/10/24 04:48:08;;;;;;;12.73;10.20;;;10.80;99.90;;;;;;5046749;28;20488;-65
2023/10/24 04:50:39;;;;;;;10.40;9.13;;;10.80;99.90;;;;;;5047117;28;21087;-67
2023/10/24 04:53:07;;;;;;;11.20;9.40;;;10.80;99.90;;;;;;5053670;28;20461;-64
2023/10/24 04:55:36;;;;;;;10.77;9.30;;;10.80;99.90;;;;;;5059540;28;20591;-64
2023/10/24 04:58:05;;;;;;;12.67;10.00;;;10.80;99.90;;;;;;5053519;28;20500;-65
2023/10/24 05:00:33;;;;;;;10.17;9.27;;;10.80;99.90;;;;;;5045794;28;20486;-64
2023/10/24 05:03:02;;;;;;;10.27;9.37;;;10.80;99.90;;;;;;5054468;28;20660;-63
2023/10/24 05:05:47;;;;;;;11.30;10.10;;;10.80;99.90;;;;;;5033437;28;20602;-64
2023/10/24 05:08:15;;;;;;;11.67;10.57;;;10.80;99.90;;;;;;5051948;28;20522;-64
2023/10/24 05:10:43;;;;;;;14.43;9.90;;;10.80;99.90;;;;;;5051389;28;20616;-64
2023/10/24 05:13:12;;;;;;;11.10;10.00;;;10.80;99.90;;;;;;5048708;28;20501;-64
2023/10/24 05:15:39;;;;;;;10.63;9.53;;;10.70;99.90;;;;;;5052690;28;21054;-64
2023/10/24 05:18:11;;;;;;;10.83;9.60;;;10.80;99.90;;;;;;5041675;28;20578;-65
2023/10/24 05:20:39;;;;;;;10.10;9.10;;;10.80;99.90;;;;;;5044949;28;20492;-64
2023/10/24 05:23:09;;;;;;;11.33;10.23;;;10.80;99.90;;;;;;5052567;28;21046;-66
2023/10/24 05:25:37;;;;;;;11.87;9.80;;;10.80;99.90;;;;;;5046428;28;20478;-65
2023/10/24 05:28:05;;;;;;;11.60;9.70;;;10.70;99.90;;;;;;5038430;28;20493;-64
2023/10/24 05:30:33;;;;;;;9.93;8.93;;;10.70;99.90;;;;;;5049053;28;20516;-64
2023/10/24 05:33:01;;;;;;;11.80;9.90;;;10.70;99.90;;;;;;5049108;28;20470;-65
2023/10/24 05:35:29;;;;;;;10.73;9.63;;;10.70;99.90;;;;;;5052863;28;20484;-64
2023/10/24 05:37:57;;;;;;;11.63;10.30;;;10.70;99.90;;;;;;5051238;28;20518;-64
2023/10/24 05:40:27;;;;;;;11.60;10.00;;;10.70;99.90;;;;;;5045514;28;20496;-63
2023/10/24 05:42:55;;;;;;;11.77;10.23;;;10.70;99.90;;;;;;5045785;28;20470;-67
2023/10/24 05:45:23;;;;;;;10.93;9.23;;;10.70;99.90;;;;;;5053301;28;21025;-64
2023/10/24 05:47:52;;;;;;;10.87;9.87;;;10.80;99.90;;;;;;5051290;28;20820;-65
2023/10/24 05:50:20;;;;;;;12.10;10.80;;;10.70;99.90;;;;;;5055944;28;21003;-64
2023/10/24 05:52:48;;;;;;;11.40;10.30;;;10.70;99.90;;;;;;5052197;28;21543;-65
2023/10/24 05:55:16;;;;;;;11.23;9.70;;;10.70;99.90;;;;;;5058893;28;20858;-64
2023/10/24 05:57:45;;;;;;;11.33;10.23;;;10.70;99.90;;;;;;5051403;28;20496;-64
2023/10/24 06:00:14;;;;;;;11.07;9.90;;;10.70;99.90;;;;;;5056002;28;20510;-63
2023/10/24 06:02:42;;;;;;;10.43;9.43;;;10.70;99.90;;;;;;5056149;28;20512;-63
2023/10/24 06:05:10;;;;;;;10.27;9.33;;;10.70;99.90;;;;;;5056109;28;20470;-65
2023/10/24 06:07:38;;;;;;;10.93;9.47;;;10.70;99.90;;;;;;5050959;28;20502;-65
2023/10/24 06:10:07;;;;;;;11.83;9.87;;;10.70;99.90;;;;;;5054186;28;20566;-66
2023/10/24 06:12:35;;;;;;;11.03;10.03;;;10.70;99.90;;;;;;5056417;28;20505;-65
2023/10/24 06:15:06;;;;;;;10.93;9.50;;;10.80;99.90;;;;;;5057481;28;20564;-63
2023/10/24 06:17:35;;;;;;;13.80;9.73;;;10.80;99.90;;;;;;5055272;28;20498;-64
2023/10/24 06:20:04;;;;;;;9.97;9.10;;;10.80;99.90;;;;;;5057403;28;20554;-64
2023/10/24 06:22:32;;;;;;;10.90;9.60;;;10.80;99.90;;;;;;5060654;28;20959;-65
2023/10/24 06:25:00;;;;;;;10.53;9.33;;;10.80;99.90;;;;;;5063045;28;20474;-65
2023/10/24 06:27:28;;;;;;;11.83;9.90;;;10.80;99.90;;;;;;5060123;28;20583;-63
2023/10/24 06:29:56;;;;;;;13.93;9.87;;;10.80;99.90;;;;;;5051388;28;20577;-63
2023/10/24 06:32:25;;;;;;;11.53;9.87;;;10.80;99.90;;;;;;5062070;28;20919;-63
2023/10/24 06:34:53;;;;;;;10.97;9.57;;;10.80;99.90;;;;;;5063726;28;20469;-65
2023/10/24 06:37:21;;;;;;;11.63;10.50;;;10.80;99.90;;;;;;5059331;28;20715;-65
2023/10/24 06:39:49;;;;;;;10.30;9.33;;;10.80;99.90;;;;;;5054826;28;20490;-64
2023/10/24 06:42:17;;;;;;;11.23;10.17;;;10.90;99.90;;;;;;5059395;28;20556;-64
2023/10/24 06:44:45;;;;;;;10.63;9.63;;;10.80;99.90;;;;;;5055469;28;20557;-64
2023/10/24 06:47:13;;;;;;;13.10;11.10;;;10.80;99.90;;;;;;5054300;28;20533;-65
2023/10/24 06:49:43;;;;;;;10.93;9.87;;;10.80;99.90;;;;;;5050628;28;20478;-65
2023/10/24 06:52:11;;;;;;;11.90;10.80;;;10.80;99.90;;;;;;5054359;28;20476;-64
2023/10/24 06:54:39;;;;;;;12.70;10.90;;;10.80;99.90;;;;;;5053153;28;20481;-63
2023/10/24 06:57:07;;;;;;;12.00;10.80;;;10.80;99.90;;;;;;5055967;28;20605;-62
2023/10/24 06:59:35;;;;;;;11.60;10.40;;;10.80;99.90;;;;;;5056737;28;20496;-62
2023/10/24 07:02:04;;;;;;;13.43;10.43;;;10.90;99.90;;;;;;5059016;28;20505;-63
2023/10/24 07:04:32;;;;;;;14.23;11.00;;;10.90;99.90;;;;;;5051673;28;20479;-64
2023/10/24 07:07:01;;;;;;;15.00;11.80;;;10.90;99.90;;;;;;5052831;28;20489;-63
2023/10/24 07:09:29;;;;;;;13.60;12.20;;;10.90;99.90;;;;;;5057957;28;20521;-63
2023/10/24 07:11:57;;;;;;;12.87;11.50;;;10.90;99.90;;;;;;5059925;28;20502;-63
2023/10/24 07:14:25;;;;;;;12.10;10.90;;;11.00;99.90;;;;;;5057237;28;20974;-63
2023/10/24 07:16:53;;;;;;;14.67;13.17;;;11.00;99.90;;;;;;5050645;28;20485;-63
2023/10/24 07:19:22;;;;;;;13.90;12.50;;;11.00;99.90;;;;;;5050843;28;20504;-63
2023/10/24 07:21:50;;;;;;;16.10;13.27;;;11.00;99.90;;;;;;5054170;28;20469;-63
2023/10/24 07:24:19;;;;;;;14.07;12.57;;;11.00;99.90;;;;;;5053919;28;20987;-63
2023/10/24 07:26:47;;;;;;;14.27;12.87;;;11.00;99.90;;;;;;5049917;28;20579;-63
2023/10/24 07:29:15;;;;;;;14.53;13.00;;;11.00;99.90;;;;;;5048712;28;20862;-62
2023/10/24 07:31:44;;;;;;;14.13;12.17;;;11.00;99.90;;;;;;5050219;28;20560;-64
2023/10/24 07:34:12;;;;;;;15.00;13.50;;;11.10;99.90;;;;;;5049045;28;21106;-63
2023/10/24 07:36:40;;;;;;;23.00;13.93;;;11.10;99.90;;;;;;5059868;28;20494;-63
2023/10/24 07:39:08;;;;;;;15.33;13.77;;;11.10;99.90;;;;;;5055056;28;20493;-63
2023/10/24 07:41:37;;;;;;;14.73;13.20;;;11.10;99.90;;;;;;5051147;28;20665;-63
2023/10/24 07:44:05;;;;;;;15.67;13.97;;;11.10;99.90;;;;;;5050924;28;20503;-68
2023/10/24 07:46:33;;;;;;;15.20;13.60;;;11.10;99.90;;;;;;5058226;28;20474;-69
2023/10/24 07:49:02;;;;;;;15.80;14.20;;;11.10;99.90;;;;;;5048660;28;20918;-68
2023/10/24 07:51:31;;;;;;;15.50;13.97;;;11.10;99.90;;;;;;5052770;28;23346;-69
2023/10/24 07:53:59;;;;;;;16.50;14.50;;;11.10;99.90;;;;;;5054139;28;20470;-72
2023/10/24 07:56:27;;;;;;;15.93;13.10;;;11.10;99.90;;;;;;5056930;28;21043;-67
2023/10/24 07:58:57;;;;;;;14.93;13.43;;;11.10;99.90;;;;;;5048020;28;20474;-69
2023/10/24 08:01:25;;;;;;;14.20;12.90;;;11.10;99.90;;;;;;5054744;28;20538;-68
2023/10/24 08:03:53;;;;;;;14.73;13.00;;;11.10;99.90;;;;;;5060649;28;20478;-68
2023/10/24 08:06:21;;;;;;;14.20;12.80;;;11.10;99.90;;;;;;5058636;28;20478;-66
2023/10/24 08:08:49;;;;;;;15.00;13.53;;;11.10;99.90;;;;;;5051832;28;20500;-64
2023/10/24 08:11:17;;;;;;;15.40;13.63;;;11.20;99.90;;;;;;5055312;28;20536;-64
2023/10/24 08:13:45;;;;;;;14.70;13.30;;;11.20;99.90;;;;;;5048468;28;20470;-65
2023/10/24 08:16:15;;;;;;;16.50;14.80;;;11.20;99.90;;;;;;5050646;28;20482;-65
2023/10/24 08:18:44;;;;;;;15.07;13.57;;;11.20;99.90;;;;;;5058364;28;21022;-65
2023/10/24 08:21:13;;;;;;;14.73;13.33;;;11.20;99.90;;;;;;5031764;28;20563;-65
2023/10/24 08:23:41;;;;;;;15.10;13.50;;;11.20;99.90;;;;;;5028373;28;20480;-65
2023/10/24 08:26:09;;;;;;;16.40;13.70;;;11.20;99.90;;;;;;5034787;28;20470;-64
2023/10/24 08:28:37;;;;;;;15.33;13.73;;;11.10;99.90;;;;;;5029674;28;20509;-64
2023/10/24 08:31:05;;;;;;;16.20;14.57;;;11.20;99.90;;;;;;5034498;28;20486;-65
2023/10/24 08:33:34;;;;;;;15.30;13.70;;;11.20;99.90;;;;;;5029086;28;20857;-65
2023/10/24 08:36:05;;;;;;;16.23;14.63;;;11.20;99.90;;;;;;5028438;28;20565;-66
2023/10/24 08:38:33;;;;;;;16.80;14.30;;;11.20;99.90;;;;;;5032270;28;20498;-65
2023/10/24 08:41:01;;;;;;;15.27;13.07;;;11.20;99.90;;;;;;5039104;28;20486;-66
2023/10/24 08:43:29;;;;;;;14.70;13.20;;;11.20;99.90;;;;;;5038626;28;20571;-66
2023/10/24 08:45:58;;;;;;;15.03;13.60;;;11.20;99.90;;;;;;5038839;28;20463;-66
2023/10/24 08:48:26;;;;;;;15.07;13.67;;;11.20;99.90;;;;;;5038705;28;20622;-66
2023/10/24 08:50:56;;;;;;;16.27;14.57;;;11.20;99.90;;;;;;5053105;28;20528;-65
2023/10/24 08:53:24;;;;;;;14.10;12.70;;;11.20;99.90;;;;;;5050990;28;20508;-66
2023/10/24 08:55:52;;;;;;;14.60;13.10;;;11.20;99.90;;;;;;5050928;28;20478;-65
2023/10/24 08:58:21;;;;;;;14.53;13.03;;;11.20;99.90;;;;;;5047524;28;20502;-65
2023/10/24 09:00:51;;;;;;;15.30;13.90;;;11.20;99.90;;;;;;5032135;28;20520;-66
2023/10/24 09:03:19;;;;;;;13.90;12.60;;;11.20;99.90;;;;;;5041810;28;20478;-66
2023/10/24 09:05:48;;;;;;;15.53;14.00;;;11.30;99.90;;;;;;5048492;28;20489;-65
2023/10/24 09:08:17;;;;;;;14.23;12.83;;;11.30;99.90;;;;;;5046594;28;20596;-66
2023/10/24 09:10:47;;;;;;;18.33;13.47;;;11.30;99.90;;;;;;5029990;28;20877;-66
2023/10/24 09:13:15;;;;;;;14.13;12.50;;;11.30;99.90;;;;;;5028637;28;20471;-66
2023/10/24 09:15:43;;;;;;;14.03;12.70;;;11.30;99.90;;;;;;5027129;28;20574;-66
2023/10/24 09:18:11;;;;;;;15.50;13.23;;;11.40;99.90;;;;;;5028864;28;20586;-66
2023/10/24 09:20:39;;;;;;;16.60;13.37;;;11.40;99.90;;;;;;5034299;28;20478;-66
2023/10/24 09:23:08;;;;;;;15.03;13.63;;;11.40;99.90;;;;;;5038972;28;21211;-66
2023/10/24 09:25:38;;;;;;;15.70;14.13;;;11.40;99.90;;;;;;5027378;28;20557;-66
2023/10/24 09:28:16;;;;;;;13.53;12.30;;;11.40;99.90;;;;;;5028720;28;20494;-66
2023/10/24 09:30:45;;;;;;;14.43;12.93;;;11.40;99.90;;;;;;5033793;28;20580;-65
2023/10/24 09:33:14;;;;;;;13.70;12.50;;;11.50;99.90;;;;;;5032903;28;20566;-65
2023/10/24 09:35:42;;;;;;;14.13;12.83;;;11.50;99.90;;;;;;5034062;28;20469;-65
2023/10/24 09:38:22;;;;;;;14.13;12.73;;;11.50;99.90;;;;;;5034686;28;20490;-65
2023/10/24 09:40:52;;;;;;;13.87;12.47;;;11.50;99.90;;;;;;5026573;28;20571;-66
2023/10/24 09:43:22;;;;;;;14.60;13.20;;;11.50;99.90;;;;;;5027842;28;20470;-65
2023/10/24 09:45:52;;;;;;;14.00;12.40;;;11.60;99.90;;;;;;5027689;28;20471;-65
2023/10/24 09:48:22;;;;;;;14.10;12.80;;;11.60;99.90;;;;;;5029484;28;20585;-66
2023/10/24 09:50:51;;;;;;;14.20;12.90;;;11.60;99.90;;;;;;5028858;28;20509;-66
2023/10/24 09:53:19;;;;;;;14.87;13.37;;;11.60;99.90;;;;;;5032743;28;20482;-66
2023/10/24 09:55:49;;;;;;;15.53;14.13;;;11.60;99.90;;;;;;5029111;28;20930;-65
2023/10/24 09:58:19;;;;;;;15.00;13.50;;;11.60;99.90;;;;;;5034020;28;20530;-65
2023/10/24 10:00:48;;;;;;;15.60;14.10;;;11.70;99.90;;;;;;5029113;28;21086;-65
2023/10/24 10:03:16;;;;;;;14.83;13.53;;;11.70;99.90;;;;;;5028393;28;20557;-65
2023/10/24 10:05:49;;;;;;;16.00;14.30;;;11.70;99.90;;;;;;5026705;28;20988;-66
2023/10/24 10:08:17;;;;;;;13.57;12.20;;;11.80;99.90;;;;;;5016074;28;20586;-66
2023/10/24 10:10:47;;;;;;;15.30;13.87;;;11.70;99.90;;;;;;5027151;28;20501;-65
2023/10/24 10:13:22;;;;;;;16.23;14.73;;;11.80;99.90;;;;;;5019800;28;20475;-65
2023/10/24 10:16:06;;;;;;;15.23;13.77;;;11.80;99.90;;;;;;5023832;28;20563;-65
2023/10/24 10:18:49;;;;;;;16.33;14.73;;;11.80;99.90;;;;;;5014808;28;20568;-65
2023/10/24 10:21:28;;;;;;;14.30;13.00;;;11.80;99.90;;;;;;5017530;28;20632;-65
2023/10/24 10:24:16;;;;;;;15.67;14.20;;;11.80;99.90;;;;;;5020876;28;20588;-65
2023/10/24 10:26:59;;;;;;;17.23;15.43;;;11.90;99.90;;;;;;5026723;28;20518;-66
2023/10/24 10:29:41;;;;;;;15.70;14.23;;;11.90;99.90;;;;;;5039340;28;20900;-64
2023/10/24 10:32:22;;;;;;;17.20;15.43;;;11.90;99.90;;;;;;5054841;28;20987;-65
2023/10/24 10:35:12;;;;;;;17.07;15.37;;;11.90;99.90;;;;;;5056479;28;20990;-65
2023/10/24 10:37:41;;;;;;;16.47;14.77;;;11.90;99.90;;;;;;5047111;28;20872;-65
2023/10/24 10:40:27;;;;;;;17.23;15.63;;;12.00;99.90;;;;;;5034969;28;20490;-65
2023/10/24 10:42:56;;;;;;;16.93;15.33;;;12.00;99.90;;;;;;5029456;28;20495;-64
2023/10/24 10:45:26;;;;;;;16.17;14.57;;;12.00;99.90;;;;;;5032531;28;21151;-65
2023/10/24 10:47:58;;;;;;;16.90;15.30;;;12.10;99.90;;;;;;5027062;28;20499;-66
2023/10/24 10:50:30;;;;;;;15.73;14.33;;;12.10;99.90;;;;;;5038378;28;20481;-66
2023/10/24 10:53:22;;;;;;;16.27;14.67;;;12.10;99.90;;;;;;5049010;28;20878;-66
2023/10/24 10:56:15;;;;;;;16.23;14.77;;;12.10;99.90;;;;;;5049173;28;20923;-66
2023/10/24 10:59:17;;;;;;;17.73;15.50;;;12.10;99.90;;;;;;5046799;28;20877;-66
2023/10/24 11:02:05;;;;;;;16.57;14.97;;;12.20;99.90;;;;;;5025039;28;21348;-65
2023/10/24 11:04:35;;;;;;;17.07;15.47;;;12.20;99.90;;;;;;5032415;28;20467;-66
2023/10/24 11:07:04;;;;;;;17.50;15.90;;;12.20;99.90;;;;;;5033327;28;20498;-65
2023/10/24 11:09:35;;;;;;;16.63;15.17;;;12.30;99.90;;;;;;5029476;28;20903;-65
2023/10/24 11:12:26;;;;;;;16.77;15.10;;;12.30;99.90;;;;;;5021079;28;20475;-65
2023/10/24 11:15:28;;;;;;;16.93;15.23;;;12.40;99.90;;;;;;5035877;28;21134;-65
2023/10/24 11:17:58;;;;;;;17.63;15.60;;;12.40;99.90;;;;;;5033588;28;21811;-65
2023/10/24 11:20:27;;;;;;;18.73;16.93;;;12.50;99.90;;;;;;5031841;28;20558;-65
2023/10/24 11:22:56;;;;;;;17.23;15.60;;;12.40;99.90;;;;;;5036760;28;21047;-65
2023/10/24 11:25:24;;;;;;;17.27;15.57;;;12.40;99.90;;;;;;5030662;28;20658;-65
2023/10/24 11:27:52;;;;;;;18.30;16.60;;;12.40;99.90;;;;;;5029836;28;20486;-65
2023/10/24 11:30:20;;;;;;;17.40;15.80;;;12.40;99.90;;;;;;5030444;28;20493;-65
2023/10/24 11:32:48;;;;;;;17.10;15.40;;;12.50;99.90;;;;;;5037088;28;20558;-65
2023/10/24 11:35:17;;;;;;;16.97;15.23;;;12.50;99.90;;;;;;5031608;28;20474;-65
2023/10/24 11:37:45;;;;;;;17.80;15.23;;;12.50;99.90;;;;;;5035208;28;20497;-65
2023/10/24 11:40:13;;;;;;;16.70;15.10;;;12.50;99.90;;;;;;5030323;28;20479;-66
2023/10/24 11:42:41;;;;;;;17.23;15.60;;;12.50;99.90;;;;;;5032315;28;20556;-66
2023/10/24 11:45:10;;;;;;;16.20;14.50;;;12.60;99.90;;;;;;5034237;28;20475;-66
2023/10/24 11:47:38;;;;;;;17.63;15.93;;;12.60;99.90;;;;;;5034327;28;20503;-65
2023/10/24 11:50:07;;;;;;;15.73;14.27;;;12.60;99.90;;;;;;5027897;28;20874;-65
2023/10/24 11:52:36;;;;;;;16.00;14.47;;;12.60;99.90;;;;;;5037105;28;20536;-65
2023/10/24 11:55:06;;;;;;;15.70;14.40;;;12.60;99.90;;;;;;5037512;28;20927;-66
2023/10/24 11:57:34;;;;;;;17.07;15.30;;;12.70;99.90;;;;;;5041288;28;20530;-65
2023/10/24 12:00:02;;;;;;;15.63;14.13;;;12.70;99.90;;;;;;5035846;28;20486;-65
2023/10/24 12:02:39;;;;;;;16.53;15.00;;;12.70;99.90;;;;;;5031153;28;20478;-66
2023/10/24 12:05:09;;;;;;;15.00;13.70;;;12.70;99.90;;;;;;5029376;28;20558;-66
2023/10/24 12:07:42;;;;;;;15.23;13.83;;;12.70;99.90;;;;;;5033186;28;20838;-65
2023/10/24 12:10:10;;;;;;;15.53;14.13;;;12.70;99.90;;;;;;5031394;28;20494;-65
2023/10/24 12:12:43;;;;;;;14.30;12.93;;;12.70;99.90;;;;;;5034000;28;20471;-66
2023/10/24 12:15:11;;;;;;;13.43;12.23;;;12.70;99.90;;;;;;5030529;28;20470;-66
2023/10/24 12:17:39;;;;;;;15.00;13.60;;;12.70;99.90;;;;;;5030276;28;20490;-67
2023/10/24 12:20:08;;;;;;;15.87;14.40;;;12.70;99.90;;;;;;5041840;28;20496;-66
2023/10/24 12:22:37;;;;;;;15.83;14.00;;;12.70;99.90;;;;;;5047311;28;20507;-66
2023/10/24 12:25:07;;;;;;;14.53;13.17;;;12.70;99.90;;;;;;5052575;28;20618;-66
2023/10/24 12:27:35;;;;;;;15.03;13.30;;;12.70;99.90;;;;;;5040830;28;20498;-66
2023/10/24 12:30:04;;;;;;;14.40;13.10;;;12.70;99.90;;;;;;5039081;28;20498;-65
2023/10/24 12:32:32;;;;;;;14.07;12.67;;;12.70;99.90;;;;;;5028499;28;20474;-65
2023/10/24 12:35:00;;;;;;;14.40;13.10;;;12.70;99.90;;;;;;5029459;28;20466;-66
2023/10/24 12:37:28;;;;;;;15.27;13.43;;;12.70;99.90;;;;;;5025724;28;21147;-66
2023/10/24 12:39:56;;;;;;;14.57;13.10;;;12.70;99.90;;;;;;5030810;28;20483;-65
2023/10/24 12:42:26;;;;;;;14.37;13.07;;;12.80;99.90;;;;;;5023562;28;20482;-65
2023/10/24 12:44:54;;;;;;;13.70;12.50;;;12.80;99.90;;;;;;5027276;28;20556;-66